Time;durP1;ratioP1;P1;durP2;ratioP2;P2;SDS_P1;SDS_P2;PMS_P1;PMS_P2;Temp;Humidity;BMP_temperature;BMP_pressure;BME280_temperature;BME280_humidity;BME280_pressure;Samples;Min_cycle;Max_cycle;Signal;HPM_P1;HPM_P2
2023/05/08 00:01:49;;;;;;;28.67;25.50;;;20.30;97.00;;;;;;4992906;28;20019;-79
2023/05/08 00:04:14;;;;;;;31.05;27.83;;;20.40;96.90;;;;;;4993173;28;20033;-75
2023/05/08 00:06:40;;;;;;;29.77;26.00;;;20.30;96.90;;;;;;4991863;28;20034;-77
2023/05/08 00:09:05;;;;;;;32.50;27.30;;;20.30;96.90;;;;;;4993234;28;20093;-81
2023/05/08 00:11:31;;;;;;;32.80;28.20;;;20.30;97.20;;;;;;4993253;28;20027;-77
2023/05/08 00:13:57;;;;;;;37.47;28.75;;;20.20;96.80;;;;;;4993009;28;20065;-79
2023/05/08 00:16:22;;;;;;;34.75;30.30;;;20.20;96.70;;;;;;4993111;28;20100;-76
2023/05/08 00:18:48;;;;;;;31.35;27.65;;;20.20;96.80;;;;;;4992831;28;20082;-76
2023/05/08 00:21:13;;;;;;;33.33;29.73;;;20.20;96.70;;;;;;4993941;28;20037;-80
2023/05/08 00:23:39;;;;;;;37.35;29.35;;;20.10;96.70;;;;;;4994888;28;20036;-75
2023/05/08 00:26:04;;;;;;;38.40;31.48;;;20.20;96.70;;;;;;4997507;28;20026;-78
2023/05/08 00:28:30;;;;;;;38.03;29.92;;;20.10;96.70;;;;;;4996863;28;20495;-74
2023/05/08 00:31:00;;;;;;;40.38;32.22;;;20.10;96.70;;;;;;4996584;28;20080;-78
2023/05/08 00:33:26;;;;;;;37.83;31.40;;;20.10;96.70;;;;;;4996349;28;20472;-82
2023/05/08 00:35:58;;;;;;;41.40;32.30;;;20.10;96.70;;;;;;4996363;28;20040;-77
2023/05/08 00:38:24;;;;;;;37.90;32.75;;;20.10;96.70;;;;;;4995118;28;20372;-74
2023/05/08 00:40:49;;;;;;;37.08;32.70;;;20.10;96.70;;;;;;4996384;28;20494;-78
2023/05/08 00:43:15;;;;;;;39.53;34.13;;;20.10;96.70;;;;;;4994266;28;20030;-78
2023/05/08 00:45:41;;;;;;;36.83;32.60;;;20.00;96.70;;;;;;4995902;28;20054;-79
2023/05/08 00:48:07;;;;;;;42.05;35.10;;;20.00;96.80;;;;;;4996223;28;20034;-79
2023/05/08 00:50:32;;;;;;;40.75;35.80;;;20.00;96.70;;;;;;4996143;28;20468;-79
2023/05/08 00:53:01;;;;;;;44.35;35.13;;;20.00;96.80;;;;;;4996141;28;20033;-75
2023/05/08 00:55:28;;;;;;;45.05;37.28;;;20.00;96.80;;;;;;4996062;28;20033;-75
2023/05/08 00:57:54;;;;;;;42.67;36.47;;;20.00;96.80;;;;;;4995857;28;20034;-79
2023/05/08 01:00:21;;;;;;;40.88;36.40;;;20.00;96.90;;;;;;4995631;28;20106;-77
2023/05/08 01:02:47;;;;;;;43.22;36.03;;;20.00;96.90;;;;;;4994691;28;20093;-80
2023/05/08 01:05:13;;;;;;;40.40;35.80;;;20.00;97.00;;;;;;4995837;28;20023;-78
2023/05/08 01:07:39;;;;;;;43.00;36.03;;;19.90;96.90;;;;;;4995911;28;20042;-80
2023/05/08 01:10:05;;;;;;;40.72;36.25;;;19.90;96.90;;;;;;4995571;28;20018;-79
2023/05/08 01:12:50;;;;;;;43.88;36.85;;;19.90;96.90;;;;;;4995729;28;20034;-78
2023/05/08 01:15:51;;;;;;;39.20;34.60;;;19.90;96.90;;;;;;4995118;28;20037;-79
2023/05/08 01:18:33;;;;;;;40.63;34.20;;;19.90;96.80;;;;;;4916613;29;20457;-81
2023/05/08 01:21:25;;;;;;;43.70;34.80;;;19.90;96.70;;;;;;4985321;28;20471;-79
2023/05/08 01:24:03;;;;;;;48.97;38.40;;;19.90;96.80;;;;;;4995583;28;20023;-78
2023/05/08 01:26:50;;;;;;;41.75;35.95;;;19.80;96.70;;;;;;4994015;28;20041;-77
2023/05/08 01:29:32;;;;;;;41.83;36.58;;;19.80;96.60;;;;;;4993940;28;20085;-76
2023/05/08 01:32:25;;;;;;;44.15;37.58;;;19.80;96.60;;;;;;4995240;28;20118;-78
2023/05/08 01:35:15;;;;;;;45.65;36.80;;;19.90;96.70;;;;;;4994725;28;20026;-76
2023/05/08 01:38:19;;;;;;;46.08;36.45;;;19.80;96.60;;;;;;4993747;28;20038;-76
2023/05/08 01:40:57;;;;;;;42.75;35.58;;;19.80;96.70;;;;;;4974553;28;20042;-80
2023/05/08 01:43:38;;;;;;;38.25;33.97;;;19.70;96.60;;;;;;4994772;28;20400;-75
2023/05/08 01:46:08;;;;;;;44.25;35.70;;;19.80;96.60;;;;;;4994911;28;20057;-74
2023/05/08 01:48:37;;;;;;;40.03;35.17;;;19.70;96.60;;;;;;4995111;28;20027;-78
2023/05/08 01:51:15;;;;;;;44.35;35.35;;;19.70;96.60;;;;;;4994762;28;20085;-74
2023/05/08 01:53:46;;;;;;;43.97;35.80;;;19.70;96.60;;;;;;4995055;28;20041;-77
2023/05/08 01:56:16;;;;;;;45.00;37.10;;;19.70;96.60;;;;;;4994788;28;20113;-74
2023/05/08 01:58:42;;;;;;;46.05;37.22;;;19.70;96.60;;;;;;4994601;28;20033;-74
2023/05/08 02:01:11;;;;;;;45.90;36.88;;;19.60;96.60;;;;;;4994489;28;20030;-75
2023/05/08 02:03:40;;;;;;;46.42;36.53;;;19.60;96.90;;;;;;4993812;28;20054;-78
2023/05/08 02:06:07;;;;;;;49.70;37.40;;;19.50;96.50;;;;;;4994643;28;20018;-76
2023/05/08 02:08:35;;;;;;;42.88;35.30;;;19.50;96.60;;;;;;4994708;28;20026;-75
2023/05/08 02:11:01;;;;;;;42.97;35.63;;;19.50;96.50;;;;;;4991430;28;20014;-74
2023/05/08 02:13:29;;;;;;;46.20;36.55;;;19.50;96.50;;;;;;4993896;28;20546;-75
2023/05/08 02:15:56;;;;;;;47.03;36.72;;;19.50;96.50;;;;;;4992175;28;20126;-74
2023/05/08 02:18:24;;;;;;;42.42;36.00;;;19.50;96.50;;;;;;4993106;28;20125;-76
2023/05/08 02:20:51;;;;;;;41.40;36.08;;;19.50;96.40;;;;;;4994461;28;20097;-75
2023/05/08 02:23:18;;;;;;;45.58;36.58;;;19.40;96.40;;;;;;4994127;28;20049;-76
2023/05/08 02:25:45;;;;;;;45.50;36.20;;;19.40;96.40;;;;;;4994390;28;20054;-74
2023/05/08 02:28:11;;;;;;;39.55;34.20;;;19.40;96.50;;;;;;4993686;28;20022;-77
2023/05/08 02:30:39;;;;;;;45.92;35.75;;;19.40;96.50;;;;;;4994448;28;20426;-75
2023/05/08 02:33:07;;;;;;;44.55;37.35;;;19.40;96.50;;;;;;4994123;28;20030;-75
2023/05/08 02:35:34;;;;;;;46.47;36.42;;;19.30;96.50;;;;;;4994320;28;20019;-80
2023/05/08 02:38:01;;;;;;;43.45;35.38;;;19.20;96.50;;;;;;4993866;28;20110;-79
2023/05/08 02:40:29;;;;;;;47.05;37.45;;;19.20;96.60;;;;;;4994227;28;20030;-74
2023/05/08 02:42:55;;;;;;;44.53;36.95;;;19.20;96.50;;;;;;4993590;28;20026;-78
2023/05/08 02:45:27;;;;;;;45.42;36.15;;;19.20;96.50;;;;;;4994137;28;20038;-79
2023/05/08 02:48:06;;;;;;;44.17;35.95;;;19.20;96.60;;;;;;4993764;28;20030;-79
2023/05/08 02:50:44;;;;;;;44.08;35.97;;;19.20;96.60;;;;;;4994014;28;20523;-77
2023/05/08 02:53:17;;;;;;;45.60;35.95;;;19.20;96.60;;;;;;4993762;28;20105;-79
2023/05/08 02:55:49;;;;;;;50.13;36.38;;;19.20;96.60;;;;;;4993845;28;20050;-77
2023/05/08 02:58:21;;;;;;;;;;;19.20;96.70;;;;;;4994085;28;20027;-76
2023/05/08 03:01:05;;;;;;;46.80;36.22;;;19.30;96.70;;;;;;4993922;28;19906;-77
2023/05/08 03:04:10;;;;;;;51.15;37.45;;;19.20;96.70;;;;;;4993529;28;20073;-79
2023/05/08 03:06:40;;;;;;;54.80;36.83;;;19.20;96.80;;;;;;4971697;28;20125;-80
2023/05/08 03:09:11;;;;;;;48.50;37.42;;;19.20;96.80;;;;;;4993773;28;20022;-79
2023/05/08 03:11:40;;;;;;;50.15;37.53;;;19.10;96.80;;;;;;4994027;28;20022;-75
2023/05/08 03:14:13;;;;;;;51.70;38.10;;;19.10;96.80;;;;;;4993443;28;20115;-77
2023/05/08 03:16:41;;;;;;;40.38;33.83;;;19.10;96.80;;;;;;4993782;28;20036;-77
2023/05/08 03:19:32;;;;;;;43.22;35.13;;;19.20;96.70;;;;;;4992235;28;20387;-78
2023/05/08 03:22:00;;;;;;;45.92;34.35;;;19.10;96.80;;;;;;4993557;28;20079;-76
2023/05/08 03:24:28;;;;;;;43.00;34.88;;;19.10;97.00;;;;;;4993130;28;20027;-79
2023/05/08 03:26:55;;;;;;;46.30;35.35;;;19.00;96.70;;;;;;4993644;28;20030;-76
2023/05/08 03:29:23;;;;;;;42.92;34.58;;;19.00;96.90;;;;;;4993343;28;20026;-74
2023/05/08 03:31:51;;;;;;;40.78;33.53;;;19.00;96.90;;;;;;4993559;28;20026;-76
2023/05/08 03:34:18;;;;;;;41.63;32.92;;;19.10;96.90;;;;;;4993324;28;20034;-78
2023/05/08 03:36:44;;;;;;;45.53;34.38;;;19.00;96.80;;;;;;4992239;28;20030;-74
2023/05/08 03:39:11;;;;;;;42.55;34.38;;;19.00;96.90;;;;;;4992928;28;20027;-76
2023/05/08 03:41:36;;;;;;;44.65;34.33;;;19.00;96.90;;;;;;4993422;28;20107;-76
2023/05/08 03:44:02;;;;;;;40.25;33.25;;;19.00;97.00;;;;;;4993351;28;20105;-76
2023/05/08 03:46:30;;;;;;;42.63;33.97;;;19.00;96.90;;;;;;4993228;28;20068;-74
2023/05/08 03:48:59;;;;;;;43.30;27.90;;;18.90;96.90;;;;;;4993263;28;20026;-76
2023/05/08 03:51:26;;;;;;;39.30;31.02;;;19.00;97.00;;;;;;4993238;28;20369;-75
2023/05/08 03:53:52;;;;;;;42.70;30.40;;;19.00;96.90;;;;;;4993222;28;20021;-77
2023/05/08 03:56:18;;;;;;;39.13;31.75;;;19.00;96.90;;;;;;4993230;28;20034;-74
2023/05/08 03:58:54;;;;;;;43.72;35.35;;;18.90;97.00;;;;;;4993942;28;20041;-77
2023/05/08 04:01:40;;;;;;;40.10;33.10;;;18.90;96.90;;;;;;4995817;28;20066;-80
2023/05/08 04:04:23;;;;;;;42.63;34.22;;;18.90;96.90;;;;;;4996909;28;20460;-78
2023/05/08 04:07:01;;;;;;;41.72;33.75;;;18.90;96.90;;;;;;4995687;28;20412;-77
2023/05/08 04:09:50;;;;;;;35.92;29.13;;;18.90;96.90;;;;;;4996193;28;20089;-79
2023/05/08 04:12:30;;;;;;;40.35;31.90;;;18.90;97.20;;;;;;4996532;28;20030;-75
2023/05/08 04:15:10;;;;;;;39.00;31.23;;;18.90;96.80;;;;;;4996631;28;20493;-77
2023/05/08 04:17:50;;;;;;;45.33;34.22;;;18.90;96.80;;;;;;4996731;28;20144;-76
2023/05/08 04:20:19;;;;;;;41.22;34.50;;;17.40;99.10;;;;;;4996734;28;20018;-77
2023/05/08 04:22:48;;;;;;;46.63;35.60;;;16.80;99.90;;;;;;4996293;28;20396;-77
2023/05/08 04:25:16;;;;;;;40.30;32.85;;;16.50;99.90;;;;;;4996554;28;20033;-75
2023/05/08 04:27:43;;;;;;;39.25;32.25;;;16.30;99.90;;;;;;4995294;28;20026;-74
2023/05/08 04:30:10;;;;;;;45.40;36.80;;;16.10;99.90;;;;;;4996482;28;20023;-77
2023/05/08 04:32:37;;;;;;;42.65;35.13;;;16.10;99.90;;;;;;4996778;28;20034;-77
2023/05/08 04:35:04;;;;;;;47.10;36.53;;;15.90;99.90;;;;;;4996302;28;20046;-80
2023/05/08 04:37:30;;;;;;;40.55;32.15;;;15.90;99.90;;;;;;4995880;28;20061;-75
2023/05/08 04:39:57;;;;;;;40.42;33.60;;;15.90;99.90;;;;;;4996509;28;20030;-78
2023/05/08 04:42:24;;;;;;;42.08;33.67;;;16.00;99.90;;;;;;4996301;28;20114;-76
2023/05/08 04:44:50;;;;;;;41.47;34.55;;;15.90;99.90;;;;;;4996246;28;20507;-74
2023/05/08 04:47:16;;;;;;;45.30;34.05;;;15.70;99.90;;;;;;4996146;28;20058;-76
2023/05/08 04:49:42;;;;;;;39.75;33.90;;;15.60;99.90;;;;;;4995790;28;20041;-81
2023/05/08 04:52:08;;;;;;;44.42;35.90;;;15.50;99.90;;;;;;4995969;28;20495;-79
2023/05/08 04:54:34;;;;;;;44.08;35.97;;;15.40;99.90;;;;;;4996216;28;20468;-78
2023/05/08 04:56:59;;;;;;;44.30;36.63;;;15.40;99.90;;;;;;4996037;28;20022;-79
2023/05/08 04:59:25;;;;;;;46.33;36.70;;;15.20;99.90;;;;;;4995852;28;20026;-78
2023/05/08 05:01:51;;;;;;;44.67;33.05;;;15.10;99.90;;;;;;4992955;28;20483;-77
2023/05/08 05:04:16;;;;;;;46.20;33.92;;;15.70;99.90;;;;;;4991507;28;20022;-76
2023/05/08 05:06:42;;;;;;;45.28;32.55;;;16.40;99.90;;;;;;4993689;28;20019;-77
2023/05/08 05:09:08;;;;;;;49.15;33.70;;;16.80;99.90;;;;;;4993330;28;20428;-77
2023/05/08 05:11:34;;;;;;;54.35;34.65;;;17.10;99.90;;;;;;4994915;28;20049;-76
2023/05/08 05:13:59;;;;;;;61.40;36.72;;;17.20;99.90;;;;;;4992122;28;20109;-77
2023/05/08 05:16:26;;;;;;;69.70;39.30;;;17.40;99.90;;;;;;4995733;28;20519;-74
2023/05/08 05:18:52;;;;;;;68.25;37.60;;;17.50;99.90;;;;;;4993438;28;20038;-76
2023/05/08 05:21:18;;;;;;;71.75;40.22;;;17.50;99.90;;;;;;4986869;28;20061;-76
2023/05/08 05:23:43;;;;;;;69.72;40.22;;;17.60;99.90;;;;;;4988833;28;20030;-77
2023/05/08 05:26:09;;;;;;;66.57;40.58;;;17.70;99.90;;;;;;4995052;28;20109;-78
2023/05/08 05:28:35;;;;;;;70.22;40.40;;;17.80;99.90;;;;;;5000640;28;20036;-77
2023/05/08 05:31:01;;;;;;;70.07;40.22;;;17.80;99.90;;;;;;4999356;28;20130;-77
2023/05/08 05:33:27;;;;;;;70.82;42.72;;;17.80;99.90;;;;;;5001596;28;20026;-78
2023/05/08 05:35:52;;;;;;;72.88;42.42;;;17.80;99.90;;;;;;4994743;28;20026;-76
2023/05/08 05:38:18;;;;;;;93.60;52.25;;;17.80;99.90;;;;;;4995196;28;20495;-79
2023/05/08 05:40:44;;;;;;;86.47;51.42;;;17.90;99.90;;;;;;4994597;28;20031;-76
2023/05/08 05:43:10;;;;;;;96.65;52.63;;;18.00;99.90;;;;;;4988932;28;20100;-76
2023/05/08 05:45:36;;;;;;;95.13;54.25;;;18.00;99.90;;;;;;4993210;28;20026;-74
2023/05/08 05:48:02;;;;;;;94.47;55.00;;;18.10;99.90;;;;;;4992739;28;20112;-74
2023/05/08 05:50:28;;;;;;;105.53;57.88;;;18.10;99.90;;;;;;4993599;28;20026;-78
2023/05/08 05:52:54;;;;;;;107.78;60.30;;;18.10;99.90;;;;;;4993854;28;20061;-79
2023/05/08 05:55:21;;;;;;;101.30;60.40;;;18.10;99.90;;;;;;4982452;28;20050;-78
2023/05/08 05:57:47;;;;;;;97.43;60.22;;;18.00;99.90;;;;;;4994109;28;20026;-78
2023/05/08 06:00:14;;;;;;;100.72;57.80;;;18.00;99.90;;;;;;4985003;28;20026;-78
2023/05/08 06:02:40;;;;;;;107.05;62.28;;;18.00;99.90;;;;;;4995120;28;20046;-78
2023/05/08 06:05:07;;;;;;;98.40;61.17;;;17.90;99.90;;;;;;4997080;28;20030;-77
2023/05/08 06:07:34;;;;;;;97.25;61.83;;;18.00;99.90;;;;;;4996690;28;20027;-76
2023/05/08 06:10:00;;;;;;;86.93;55.10;;;17.90;99.90;;;;;;4993527;28;20026;-79
2023/05/08 06:12:27;;;;;;;93.63;56.70;;;18.10;99.90;;;;;;4993191;28;20072;-79
2023/05/08 06:14:53;;;;;;;89.90;55.40;;;18.10;99.90;;;;;;5009128;28;20029;-80
2023/05/08 06:17:18;;;;;;;80.35;54.00;;;18.20;99.90;;;;;;5012831;28;20437;-80
2023/05/08 06:19:49;;;;;;;70.15;48.78;;;18.10;99.90;;;;;;5012509;28;20026;-78
2023/05/08 06:22:16;;;;;;;68.15;46.45;;;18.10;99.90;;;;;;4997266;28;20027;-76
2023/05/08 06:24:42;;;;;;;65.65;45.60;;;18.00;99.90;;;;;;4991434;28;20557;-77
2023/05/08 06:27:07;;;;;;;59.90;42.90;;;18.00;99.90;;;;;;4977875;28;20026;-76
2023/05/08 06:29:33;;;;;;;52.38;39.67;;;18.10;99.90;;;;;;4994255;28;20030;-76
2023/05/08 06:31:59;;;;;;;52.17;38.75;;;18.10;99.80;;;;;;4984297;28;20082;-75
2023/05/08 06:34:24;;;;;;;50.53;38.95;;;18.10;99.80;;;;;;4991137;28;20054;-78
2023/05/08 06:36:50;;;;;;;51.70;39.53;;;18.10;99.90;;;;;;4990697;28;20023;-78
2023/05/08 06:39:15;;;;;;;53.42;39.53;;;18.00;99.90;;;;;;4994083;28;20035;-75
2023/05/08 06:41:41;;;;;;;51.30;37.60;;;18.00;99.90;;;;;;4994003;28;20470;-79
2023/05/08 06:44:07;;;;;;;55.15;40.83;;;18.10;99.70;;;;;;4992734;28;20029;-78
2023/05/08 06:46:32;;;;;;;49.08;39.83;;;18.10;99.90;;;;;;4993774;28;20026;-77
2023/05/08 06:48:58;;;;;;;52.97;39.20;;;18.10;99.90;;;;;;4993516;28;20474;-77
2023/05/08 06:51:23;;;;;;;50.65;37.50;;;18.20;99.90;;;;;;4994009;28;20041;-75
2023/05/08 06:53:49;;;;;;;52.88;38.53;;;18.20;99.90;;;;;;4993940;28;20506;-77
2023/05/08 06:56:15;;;;;;;48.05;37.05;;;18.10;99.90;;;;;;4994067;28;20026;-77
2023/05/08 06:58:40;;;;;;;48.25;35.50;;;18.10;99.90;;;;;;4993730;28;20034;-79
2023/05/08 07:01:06;;;;;;;44.63;34.17;;;18.10;99.90;;;;;;4992117;28;20156;-76
2023/05/08 07:03:32;;;;;;;45.03;34.30;;;18.20;99.90;;;;;;4993089;28;20038;-77
2023/05/08 07:05:57;;;;;;;42.72;32.63;;;18.10;99.90;;;;;;4993889;28;20026;-76
2023/05/08 07:08:23;;;;;;;42.08;31.02;;;18.10;99.90;;;;;;4990164;28;20034;-77
2023/05/08 07:10:48;;;;;;;36.97;29.48;;;18.10;99.90;;;;;;4993005;28;20133;-77
2023/05/08 07:13:18;;;;;;;38.90;30.27;;;18.20;99.90;;;;;;4992587;28;20027;-75
2023/05/08 07:15:44;;;;;;;39.58;29.92;;;18.00;99.90;;;;;;4993512;28;20022;-77
2023/05/08 07:18:10;;;;;;;38.95;29.70;;;18.10;99.90;;;;;;4992750;28;20064;-76
2023/05/08 07:20:35;;;;;;;37.97;30.35;;;18.10;99.90;;;;;;4993850;28;20045;-75
2023/05/08 07:23:01;;;;;;;37.88;29.80;;;18.10;99.90;;;;;;4992549;28;20034;-77
2023/05/08 07:25:27;;;;;;;37.20;28.90;;;18.20;99.90;;;;;;4993516;28;20078;-77
2023/05/08 07:27:52;;;;;;;38.38;29.50;;;18.20;99.90;;;;;;4994086;28;20026;-76
2023/05/08 07:30:18;;;;;;;37.03;29.48;;;18.20;99.90;;;;;;4993486;28;20445;-76
2023/05/08 07:32:44;;;;;;;38.28;29.83;;;18.30;99.90;;;;;;4992365;28;20034;-78
2023/05/08 07:35:11;;;;;;;38.38;29.10;;;18.20;99.90;;;;;;4996644;28;20023;-77
2023/05/08 07:37:37;;;;;;;35.22;26.52;;;18.20;99.90;;;;;;4997523;28;20041;-76
2023/05/08 07:40:03;;;;;;;35.58;26.85;;;18.30;99.90;;;;;;4994841;28;20034;-77
2023/05/08 07:42:29;;;;;;;36.08;25.90;;;18.40;99.90;;;;;;4996140;28;20037;-78
2023/05/08 07:44:54;;;;;;;37.20;26.42;;;18.40;99.90;;;;;;4997767;28;20023;-77
2023/05/08 07:47:20;;;;;;;35.17;24.98;;;18.40;99.90;;;;;;4997461;28;20061;-79
2023/05/08 07:49:46;;;;;;;34.53;24.65;;;18.50;99.80;;;;;;4996613;28;20396;-78
2023/05/08 07:52:11;;;;;;;35.83;25.15;;;18.60;99.70;;;;;;4997465;28;20034;-78
2023/05/08 07:54:37;;;;;;;36.65;27.10;;;18.60;99.70;;;;;;4997558;28;20023;-78
2023/05/08 07:57:02;;;;;;;42.45;28.10;;;18.60;99.70;;;;;;4996193;28;20470;-78
2023/05/08 07:59:28;;;;;;;35.97;26.60;;;18.60;99.80;;;;;;4995538;28;20050;-73
2023/05/08 08:01:54;;;;;;;39.50;27.35;;;18.70;99.80;;;;;;4988685;28;20041;-72
2023/05/08 08:04:19;;;;;;;40.47;27.75;;;18.60;99.90;;;;;;4994686;28;20538;-78
2023/05/08 08:06:45;;;;;;;40.00;27.00;;;18.70;99.90;;;;;;4995493;28;20030;-78
2023/05/08 08:09:11;;;;;;;40.55;26.83;;;18.70;99.80;;;;;;4996278;28;20065;-77
2023/05/08 08:11:36;;;;;;;44.25;29.08;;;18.80;99.80;;;;;;4994869;28;20022;-77
2023/05/08 08:14:02;;;;;;;39.08;26.95;;;18.70;99.80;;;;;;4995627;28;20097;-77
2023/05/08 08:16:27;;;;;;;37.15;24.05;;;18.70;99.70;;;;;;4992461;28;20519;-77
2023/05/08 08:18:53;;;;;;;39.55;27.08;;;18.80;99.60;;;;;;4993345;28;20042;-77
2023/05/08 08:21:19;;;;;;;33.58;23.02;;;18.80;99.80;;;;;;4994523;28;20026;-76
2023/05/08 08:23:44;;;;;;;41.33;25.80;;;18.80;99.60;;;;;;4994776;28;20507;-77
2023/05/08 08:26:10;;;;;;;37.75;27.30;;;18.80;99.70;;;;;;4995969;28;20057;-77
2023/05/08 08:28:36;;;;;;;34.25;23.50;;;18.80;99.60;;;;;;4995476;28;20031;-78
2023/05/08 08:31:01;;;;;;;34.33;23.48;;;18.90;99.50;;;;;;4993260;28;20383;-78
2023/05/08 08:33:28;;;;;;;31.95;20.67;;;18.80;99.50;;;;;;4996051;28;20449;-77
2023/05/08 08:35:54;;;;;;;27.80;21.23;;;18.80;99.40;;;;;;4995732;28;20065;-78
2023/05/08 08:38:19;;;;;;;30.63;23.10;;;18.90;99.30;;;;;;4995055;28;20030;-78
2023/05/08 08:40:45;;;;;;;37.88;26.15;;;18.90;99.40;;;;;;4993932;28;20031;-76
2023/05/08 08:43:10;;;;;;;37.65;25.73;;;18.90;99.70;;;;;;4994392;28;20033;-77
2023/05/08 08:45:37;;;;;;;34.60;24.27;;;18.90;99.70;;;;;;4994344;28;20026;-76
2023/05/08 08:48:03;;;;;;;29.95;22.05;;;18.90;99.50;;;;;;4995587;28;20057;-78
2023/05/08 08:50:32;;;;;;;26.52;19.40;;;18.90;99.30;;;;;;4995643;28;20023;-78
2023/05/08 08:53:13;;;;;;;28.55;20.58;;;19.00;99.20;;;;;;4993624;28;20026;-77
2023/05/08 08:55:41;;;;;;;27.83;20.10;;;19.00;99.20;;;;;;4995390;28;20487;-78
2023/05/08 08:58:20;;;;;;;26.15;20.35;;;19.00;99.20;;;;;;4993658;28;20113;-77
2023/05/08 09:00:46;;;;;;;25.23;19.25;;;19.00;99.20;;;;;;4995369;28;20539;-77
2023/05/08 09:03:13;;;;;;;26.13;21.00;;;19.00;99.10;;;;;;4992716;28;20027;-77
2023/05/08 09:05:39;;;;;;;29.88;21.13;;;19.00;99.10;;;;;;4994343;28;20026;-77
2023/05/08 09:08:06;;;;;;;37.95;25.90;;;19.00;99.10;;;;;;4995073;28;20027;-75
2023/05/08 09:10:33;;;;;;;37.63;25.10;;;19.00;99.10;;;;;;4994854;28;20018;-78
2023/05/08 09:12:59;;;;;;;34.13;24.58;;;19.00;99.20;;;;;;4994113;28;20034;-79
2023/05/08 09:15:24;;;;;;;30.33;22.42;;;19.10;99.10;;;;;;4994548;28;20036;-78
2023/05/08 09:17:50;;;;;;;25.80;19.35;;;19.10;99.10;;;;;;4993015;28;20038;-78
2023/05/08 09:20:16;;;;;;;35.53;25.67;;;19.10;99.30;;;;;;4994992;28;20084;-77
2023/05/08 09:22:42;;;;;;;35.10;25.13;;;19.10;99.10;;;;;;4993311;28;20471;-76
2023/05/08 09:25:08;;;;;;;34.70;23.55;;;19.10;99.30;;;;;;4995187;28;20030;-75
2023/05/08 09:27:35;;;;;;;28.02;20.25;;;19.10;99.20;;;;;;4994664;28;20033;-73
2023/05/08 09:30:03;;;;;;;31.40;23.73;;;19.10;98.80;;;;;;4995113;28;20101;-76
2023/05/08 09:32:33;;;;;;;29.88;21.92;;;19.20;98.90;;;;;;4992261;28;20083;-79
2023/05/08 09:34:59;;;;;;;27.60;19.15;;;19.20;98.80;;;;;;4994182;28;20019;-78
2023/05/08 09:37:26;;;;;;;41.67;28.45;;;19.20;98.80;;;;;;4993183;28;20030;-79
2023/05/08 09:39:52;;;;;;;44.63;29.35;;;19.20;98.80;;;;;;4994729;28;20030;-78
2023/05/08 09:42:19;;;;;;;30.15;22.75;;;19.20;99.10;;;;;;4993786;28;20041;-77
2023/05/08 09:44:50;;;;;;;32.72;21.77;;;19.20;98.80;;;;;;4992969;28;20037;-78
2023/05/08 09:47:20;;;;;;;28.80;20.40;;;19.20;98.70;;;;;;4994313;28;20025;-78
2023/05/08 09:49:57;;;;;;;33.00;23.90;;;19.20;98.70;;;;;;4994365;28;20026;-76
2023/05/08 09:52:23;;;;;;;28.63;21.38;;;19.20;98.90;;;;;;4993606;28;20026;-80
2023/05/08 09:54:59;;;;;;;32.38;23.02;;;19.20;98.80;;;;;;4994099;28;20080;-77
2023/05/08 09:57:26;;;;;;;29.60;21.98;;;19.20;98.90;;;;;;4992510;28;20365;-76
2023/05/08 10:00:09;;;;;;;34.80;22.27;;;19.20;98.80;;;;;;4993336;28;20050;-75
2023/05/08 10:02:37;;;;;;;30.13;20.20;;;19.30;98.90;;;;;;4994786;28;20027;-77
2023/05/08 10:05:04;;;;;;;31.75;21.65;;;19.30;98.90;;;;;;4993037;28;20023;-77
2023/05/08 10:07:35;;;;;;;30.88;22.40;;;19.30;98.90;;;;;;4992902;28;20046;-77
2023/05/08 10:10:05;;;;;;;32.70;22.13;;;19.20;98.90;;;;;;4993834;28;20030;-76
2023/05/08 10:12:32;;;;;;;33.83;25.00;;;19.30;98.70;;;;;;4994235;28;20026;-75
2023/05/08 10:14:58;;;;;;;28.65;22.75;;;19.30;99.00;;;;;;4993847;28;20026;-76
2023/05/08 10:17:52;;;;;;;35.28;22.58;;;19.30;98.90;;;;;;4992889;28;20372;-76
2023/05/08 10:20:20;;;;;;;33.05;21.52;;;19.30;98.80;;;;;;4975516;28;20034;-75
2023/05/08 10:22:48;;;;;;;32.60;21.73;;;19.30;98.80;;;;;;4974736;28;20468;-76
2023/05/08 10:25:19;;;;;;;28.73;20.48;;;19.30;98.80;;;;;;4992915;28;20105;-75
2023/05/08 10:28:03;;;;;;;29.17;19.97;;;19.30;98.80;;;;;;4994850;28;20099;-76
2023/05/08 10:30:30;;;;;;;26.08;18.98;;;19.30;98.70;;;;;;4994238;28;20528;-75
2023/05/08 10:32:58;;;;;;;25.15;18.63;;;19.30;98.70;;;;;;4994268;28;20123;-77
2023/05/08 10:35:24;;;;;;;28.00;19.95;;;19.40;98.70;;;;;;4994257;28;20054;-79
2023/05/08 10:37:50;;;;;;;28.23;19.65;;;19.40;98.70;;;;;;4993877;28;20120;-75
2023/05/08 10:40:20;;;;;;;25.45;19.70;;;19.30;98.70;;;;;;4994101;28;20379;-74
2023/05/08 10:42:46;;;;;;;26.38;20.48;;;19.40;98.60;;;;;;4993881;28;20022;-76
2023/05/08 10:45:12;;;;;;;21.70;18.10;;;19.40;98.60;;;;;;4994084;28;20089;-78
2023/05/08 10:47:51;;;;;;;25.17;18.13;;;19.40;98.60;;;;;;4993884;28;20109;-76
2023/05/08 10:50:34;;;;;;;24.58;18.50;;;19.40;98.60;;;;;;4994588;28;20032;-74
2023/05/08 10:53:16;;;;;;;22.00;17.30;;;19.50;98.60;;;;;;4993773;28;20022;-76
2023/05/08 10:55:46;;;;;;;25.13;20.20;;;19.50;98.60;;;;;;4993762;28;20057;-77
2023/05/08 10:58:16;;;;;;;23.90;18.73;;;19.50;98.50;;;;;;4993879;28;20393;-78
2023/05/08 11:00:58;;;;;;;21.48;16.88;;;19.50;98.60;;;;;;4993723;28;20395;-74
2023/05/08 11:03:25;;;;;;;22.20;17.05;;;19.50;98.50;;;;;;4993777;28;20392;-76
2023/05/08 11:05:53;;;;;;;22.73;17.15;;;19.50;98.40;;;;;;4993781;28;20026;-75
2023/05/08 11:08:23;;;;;;;20.02;15.48;;;19.50;98.30;;;;;;4993261;28;20058;-78
2023/05/08 11:11:20;;;;;;;24.83;16.23;;;19.50;98.30;;;;;;4993744;28;20069;-75
2023/05/08 11:13:51;;;;;;;25.40;17.85;;;19.50;98.20;;;;;;4992947;28;20028;-78
2023/05/08 11:16:17;;;;;;;19.02;14.80;;;19.70;95.70;;;;;;4994002;28;20093;-76
2023/05/08 11:19:21;;;;;;;19.25;15.43;;;19.70;94.70;;;;;;4993443;28;20038;-77
2023/05/08 11:22:12;;;;;;;19.05;13.95;;;19.80;95.00;;;;;;4993643;28;20030;-78
2023/05/08 11:24:59;;;;;;;15.65;12.70;;;19.90;95.30;;;;;;4993416;28;20037;-76
2023/05/08 11:27:49;;;;;;;17.35;14.02;;;19.90;94.30;;;;;;4979775;28;20130;-77
2023/05/08 11:30:22;;;;;;;17.70;13.75;;;20.00;94.60;;;;;;4993589;28;20431;-78
2023/05/08 11:33:03;;;;;;;15.52;13.38;;;20.00;94.40;;;;;;4993596;28;20105;-76
2023/05/08 11:36:15;;;;;;;17.02;14.00;;;20.00;94.50;;;;;;4993536;28;20089;-78
2023/05/08 11:38:42;;;;;;;16.02;12.98;;;20.10;94.90;;;;;;4898211;29;20043;-74
2023/05/08 11:41:09;;;;;;;18.55;14.65;;;20.10;94.90;;;;;;4989193;28;20144;-75
2023/05/08 11:44:03;;;;;;;16.25;13.77;;;20.10;94.60;;;;;;4993293;28;20057;-75
2023/05/08 11:46:39;;;;;;;18.48;14.10;;;20.10;95.00;;;;;;4993560;28;20113;-74
2023/05/08 11:49:10;;;;;;;15.82;12.43;;;20.20;94.70;;;;;;4993090;28;20070;-77
2023/05/08 11:51:37;;;;;;;15.05;11.93;;;20.20;95.00;;;;;;4993369;28;20030;-76
2023/05/08 11:54:03;;;;;;;14.60;12.98;;;20.20;95.00;;;;;;4992938;28;20015;-78
2023/05/08 11:56:30;;;;;;;15.10;12.32;;;20.20;95.00;;;;;;4992123;28;20030;-74
2023/05/08 11:59:07;;;;;;;14.80;11.82;;;20.30;95.10;;;;;;4992949;28;20069;-76
2023/05/08 12:01:33;;;;;;;13.80;11.25;;;20.30;95.40;;;;;;4993283;28;20495;-78
2023/05/08 12:04:10;;;;;;;17.00;13.65;;;20.30;95.30;;;;;;4993225;28;20050;-77
2023/05/08 12:06:38;;;;;;;12.85;10.52;;;20.30;95.40;;;;;;4992918;28;20050;-77
2023/05/08 12:09:11;;;;;;;13.55;11.05;;;20.30;95.30;;;;;;4993131;28;20113;-76
2023/05/08 12:11:38;;;;;;;13.63;11.40;;;20.30;95.30;;;;;;4993141;28;20029;-75
2023/05/08 12:14:03;;;;;;;13.48;10.40;;;20.30;95.40;;;;;;4992950;28;20022;-75
2023/05/08 12:16:29;;;;;;;15.65;11.30;;;20.30;95.30;;;;;;4993101;28;20037;-79
2023/05/08 12:18:56;;;;;;;15.48;12.85;;;20.40;95.40;;;;;;4993081;28;20058;-74
2023/05/08 12:21:22;;;;;;;15.35;12.18;;;20.30;95.60;;;;;;4996016;28;20018;-76
2023/05/08 12:23:48;;;;;;;11.88;10.00;;;20.30;95.40;;;;;;4996811;28;20030;-78
2023/05/08 12:26:14;;;;;;;12.63;10.75;;;20.30;95.60;;;;;;4995803;28;20507;-78
2023/05/08 12:28:43;;;;;;;13.70;11.88;;;20.30;95.60;;;;;;4995372;28;20432;-75
2023/05/08 12:31:10;;;;;;;13.55;11.35;;;20.30;95.70;;;;;;4995659;28;20456;-75
2023/05/08 12:33:37;;;;;;;12.90;10.88;;;20.30;96.00;;;;;;4996637;28;20026;-75
2023/05/08 12:36:05;;;;;;;12.27;10.25;;;20.30;95.80;;;;;;4996026;28;20018;-75
2023/05/08 12:38:31;;;;;;;16.33;11.63;;;20.30;96.00;;;;;;4996341;28;20395;-76
2023/05/08 12:40:56;;;;;;;13.77;9.70;;;20.30;95.90;;;;;;4996383;28;20018;-75